createdAt,value
2019-03-23T00:00:05.816Z,7.87
2019-03-23T00:01:05.976Z,7.76
2019-03-23T00:02:05.891Z,7.77
2019-03-23T00:03:05.847Z,7.79
2019-03-23T00:04:05.783Z,7.72
2019-03-23T00:05:05.879Z,7.69
2019-03-23T00:06:05.791Z,7.67
2019-03-23T00:07:05.877Z,7.70
2019-03-23T00:08:05.731Z,7.63
2019-03-23T00:09:05.792Z,7.58
2019-03-23T00:10:05.726Z,7.63
2019-03-23T00:11:05.742Z,7.69
2019-03-23T00:12:05.701Z,7.63
2019-03-23T00:13:05.826Z,7.57
2019-03-23T00:14:05.685Z,7.60
2019-03-23T00:15:05.746Z,7.53
2019-03-23T00:16:05.691Z,7.45
2019-03-23T00:17:05.654Z,7.48
2019-03-23T00:18:05.646Z,7.54
2019-03-23T00:19:05.772Z,7.47
2019-03-23T00:20:05.618Z,7.47
2019-03-23T00:21:05.740Z,7.33
2019-03-23T00:22:05.595Z,7.35
2019-03-23T00:23:05.588Z,7.38
2019-03-23T00:24:05.574Z,7.29
2019-03-23T00:25:05.715Z,7.25
2019-03-23T00:26:05.591Z,7.18
2019-03-23T00:27:05.614Z,7.24
2019-03-23T00:28:05.533Z,7.14
2019-03-23T00:29:05.523Z,7.00
2019-03-23T00:30:05.514Z,7.06
2019-03-23T00:31:06.642Z,6.99
2019-03-23T00:32:05.497Z,6.93
2019-03-23T00:33:06.600Z,6.97
2019-03-23T00:34:05.472Z,6.93
2019-03-23T00:35:05.463Z,6.84
2019-03-23T00:36:05.467Z,6.82
2019-03-23T00:37:05.600Z,6.87
2019-03-23T00:38:05.430Z,6.82
2019-03-23T00:39:05.520Z,6.85
2019-03-23T00:40:05.470Z,6.78
2019-03-23T00:41:05.438Z,6.79
2019-03-23T00:42:05.378Z,6.77
2019-03-23T00:43:05.548Z,6.70
2019-03-23T00:44:07.400Z,6.64
2019-03-23T00:45:05.463Z,6.70
2019-03-23T00:46:05.379Z,6.57
2019-03-23T00:47:05.342Z,6.54
2019-03-23T00:48:05.328Z,6.52
2019-03-23T00:49:06.412Z,6.48
2019-03-23T00:50:05.319Z,6.48
2019-03-23T00:51:05.455Z,6.44
2019-03-23T00:52:05.290Z,6.44
2019-03-23T00:53:05.275Z,6.44
2019-03-23T00:54:05.258Z,6.39
2019-03-23T00:55:06.357Z,6.35
2019-03-23T00:56:05.263Z,6.33
2019-03-23T00:57:05.346Z,6.42
2019-03-23T00:58:05.223Z,6.49
2019-03-23T00:59:05.208Z,6.44
2019-03-23T01:00:05.198Z,6.49
2019-03-23T01:01:05.337Z,6.49
2019-03-23T01:02:05.171Z,6.66
2019-03-23T01:03:05.295Z,6.67
2019-03-23T01:04:05.163Z,6.85
2019-03-23T01:05:05.135Z,6.96
2019-03-23T01:06:05.164Z,6.95
2019-03-23T01:07:05.212Z,7.13
2019-03-23T01:08:05.103Z,7.23
2019-03-23T01:09:05.242Z,7.33
2019-03-23T01:10:05.094Z,7.33
2019-03-23T01:11:05.110Z,7.47
2019-03-23T01:12:05.073Z,7.56
2019-03-23T01:13:05.272Z,7.69
2019-03-23T01:14:05.054Z,7.90
2019-03-23T01:15:05.271Z,7.94
2019-03-23T01:16:05.051Z,8.03
2019-03-23T01:17:05.025Z,8.05
2019-03-23T01:18:05.018Z,8.10
2019-03-23T01:19:05.219Z,8.13
2019-03-23T01:20:04.986Z,8.18
2019-03-23T01:21:05.198Z,8.13
2019-03-23T01:22:04.975Z,8.28
2019-03-23T01:23:04.964Z,8.36
2019-03-23T01:24:04.950Z,8.45
2019-03-23T01:25:04.966Z,8.58
2019-03-23T01:26:05.005Z,8.56
2019-03-23T01:27:04.980Z,8.67
2019-03-23T01:28:04.909Z,8.66
2019-03-23T01:29:04.894Z,8.69
2019-03-23T01:30:04.889Z,8.60
2019-03-23T01:31:04.963Z,8.63
2019-03-23T01:32:04.863Z,8.56
2019-03-23T01:33:04.926Z,8.56
2019-03-23T01:34:04.839Z,8.51
2019-03-23T01:35:04.834Z,8.46
2019-03-23T01:36:04.854Z,8.28
2019-03-23T01:37:04.857Z,8.31
2019-03-23T01:38:04.806Z,8.33
2019-03-23T01:39:04.869Z,8.26
2019-03-23T01:40:04.782Z,8.18
2019-03-23T01:41:04.804Z,8.24
2019-03-23T01:42:04.761Z,8.26
2019-03-23T01:43:04.798Z,8.24
2019-03-23T01:44:04.738Z,8.16
2019-03-23T01:45:04.812Z,8.13
2019-03-23T01:46:04.745Z,8.13
2019-03-23T01:47:04.703Z,8.01
2019-03-23T01:48:04.682Z,8.00
2019-03-23T01:49:04.737Z,7.97
2019-03-23T01:50:04.674Z,7.95
2019-03-23T01:51:05.724Z,8.09
2019-03-23T01:52:04.653Z,8.12
2019-03-23T01:53:04.641Z,8.18
2019-03-23T01:54:04.635Z,8.28
2019-03-23T01:55:04.684Z,8.30
2019-03-23T01:56:04.637Z,8.33
2019-03-23T01:57:04.694Z,8.30
2019-03-23T01:58:04.594Z,8.30
2019-03-23T01:59:04.570Z,8.42
2019-03-23T02:00:04.575Z,8.36
2019-03-23T02:01:04.687Z,8.30
2019-03-23T02:02:04.564Z,8.19
2019-03-23T02:03:04.650Z,8.16
2019-03-23T02:04:04.533Z,8.05
2019-03-23T02:05:04.526Z,8.00
2019-03-23T02:06:04.535Z,7.91
2019-03-23T02:07:13.401Z,7.82
2019-03-23T02:08:05.477Z,7.76
2019-03-23T02:09:04.599Z,7.66
2019-03-23T02:10:04.458Z,7.66
2019-03-23T02:11:04.477Z,7.47
2019-03-23T02:12:04.448Z,7.51
2019-03-23T02:13:04.527Z,7.47
2019-03-23T02:14:04.420Z,7.54
2019-03-23T02:15:04.540Z,7.60
2019-03-23T02:16:04.427Z,7.57
2019-03-23T02:17:04.397Z,7.56
2019-03-23T02:18:04.380Z,7.61
2019-03-23T02:19:04.472Z,7.58
2019-03-23T02:20:04.360Z,7.56
2019-03-23T02:21:04.545Z,7.43
2019-03-23T02:22:04.336Z,7.39
2019-03-23T02:23:04.326Z,7.31
2019-03-23T02:24:04.317Z,7.33
2019-03-23T02:25:04.419Z,7.23
2019-03-23T02:26:04.326Z,7.15
2019-03-23T02:27:04.429Z,7.10
2019-03-23T02:28:04.280Z,6.88
2019-03-23T02:29:04.446Z,6.89
2019-03-23T02:30:04.258Z,6.85
2019-03-23T02:31:07.168Z,6.84
2019-03-23T02:32:04.245Z,6.85
2019-03-23T02:33:04.387Z,6.79
2019-03-23T02:34:04.223Z,6.82
2019-03-23T02:35:04.355Z,6.84
2019-03-23T02:36:04.206Z,6.75
2019-03-23T02:37:04.316Z,6.67
2019-03-23T02:38:04.176Z,6.72
2019-03-23T02:39:04.367Z,6.70
2019-03-23T02:40:04.156Z,6.62
2019-03-23T02:41:04.296Z,6.70
2019-03-23T02:42:04.130Z,6.64
2019-03-23T02:43:04.249Z,6.70
2019-03-23T02:44:04.113Z,6.69
2019-03-23T02:45:04.265Z,6.59
2019-03-23T02:46:04.120Z,6.59
2019-03-23T02:47:04.173Z,6.57
2019-03-23T02:48:04.186Z,6.56
2019-03-23T02:49:04.063Z,6.54
2019-03-23T02:50:04.203Z,6.60
2019-03-23T02:51:04.080Z,6.52
2019-03-23T02:52:04.224Z,6.52
2019-03-23T02:53:04.033Z,6.48
2019-03-23T02:54:04.011Z,6.46
2019-03-23T02:55:04.153Z,6.48
2019-03-23T02:56:04.020Z,6.54
2019-03-23T02:57:04.157Z,6.35
2019-03-23T02:58:03.966Z,6.39
2019-03-23T02:59:04.067Z,6.33
2019-03-23T03:00:04.083Z,6.38
2019-03-23T03:01:03.966Z,6.35
2019-03-23T03:02:04.091Z,6.36
2019-03-23T03:03:03.912Z,6.39
2019-03-23T03:04:04.004Z,6.33
2019-03-23T03:05:03.898Z,6.39
2019-03-23T03:06:03.910Z,6.33
2019-03-23T03:07:03.869Z,6.42
2019-03-23T03:08:03.934Z,6.33
2019-03-23T03:09:03.867Z,6.41
2019-03-23T03:10:04.881Z,6.39
2019-03-23T03:11:03.860Z,6.35
2019-03-23T03:12:03.912Z,6.36
2019-03-23T03:13:03.823Z,6.33
2019-03-23T03:14:03.883Z,6.28
2019-03-23T03:15:03.790Z,6.35
2019-03-23T03:16:04.034Z,6.30
2019-03-23T03:17:03.777Z,6.30
2019-03-23T03:18:03.821Z,6.26
2019-03-23T03:19:03.740Z,6.30
2019-03-23T03:20:03.823Z,6.22
2019-03-23T03:21:03.783Z,6.24
2019-03-23T03:22:03.841Z,6.27
2019-03-23T03:23:03.703Z,6.17
2019-03-23T03:24:03.758Z,6.20
2019-03-23T03:25:03.699Z,6.08
2019-03-23T03:26:05.775Z,6.07
2019-03-23T03:27:03.680Z,6.07
2019-03-23T03:28:03.793Z,6.20
2019-03-23T03:29:03.647Z,6.14
2019-03-23T03:30:03.702Z,6.07
2019-03-23T03:31:03.653Z,6.14
2019-03-23T03:32:03.724Z,6.02
2019-03-23T03:33:03.601Z,6.02
2019-03-23T03:34:03.746Z,6.01
2019-03-23T03:35:03.596Z,5.98
2019-03-23T03:36:03.703Z,6.01
2019-03-23T03:37:03.645Z,5.97
2019-03-23T03:38:03.548Z,6.04
2019-03-23T03:39:03.660Z,6.09
2019-03-23T03:40:03.529Z,6.07
2019-03-23T03:41:03.629Z,6.01
2019-03-23T03:42:03.513Z,6.02
2019-03-23T03:43:03.496Z,6.02
2019-03-23T03:44:03.483Z,6.02
2019-03-23T03:45:03.621Z,6.08
2019-03-23T03:46:03.499Z,6.04
2019-03-23T03:47:03.526Z,5.98
2019-03-23T03:48:03.442Z,5.99
2019-03-23T03:49:12.178Z,6.04
2019-03-23T03:50:04.417Z,5.97
2019-03-23T03:51:03.511Z,5.97
2019-03-23T03:52:03.404Z,5.98
2019-03-23T03:53:03.466Z,5.91
2019-03-23T03:54:03.377Z,5.99
2019-03-23T03:55:03.482Z,5.93
2019-03-23T03:56:03.389Z,5.87
2019-03-23T03:57:03.492Z,5.93
2019-03-23T03:58:03.351Z,5.89
2019-03-23T03:59:03.405Z,5.90
2019-03-23T04:00:03.315Z,5.94
2019-03-23T04:01:03.476Z,5.86
2019-03-23T04:02:03.287Z,5.93
2019-03-23T04:03:03.434Z,5.87
2019-03-23T04:04:03.271Z,5.89
2019-03-23T04:05:03.349Z,5.87
2019-03-23T04:06:03.275Z,5.80
2019-03-23T04:07:03.354Z,5.87
2019-03-23T04:08:10.902Z,5.94
2019-03-23T04:09:04.210Z,5.98
2019-03-23T04:10:03.278Z,5.90
2019-03-23T04:11:03.232Z,5.93
2019-03-23T04:12:03.290Z,5.89
2019-03-23T04:13:03.175Z,5.90
2019-03-23T04:14:03.171Z,5.98
2019-03-23T04:15:03.344Z,5.89
2019-03-23T04:16:03.171Z,5.93
2019-03-23T04:17:03.222Z,5.91
2019-03-23T04:18:03.126Z,5.90
2019-03-23T04:19:03.241Z,5.90
2019-03-23T04:20:03.245Z,5.98
2019-03-23T04:21:03.122Z,5.97
2019-03-23T04:22:03.173Z,5.97
2019-03-23T04:23:03.070Z,5.99
2019-03-23T04:24:03.181Z,6.04
2019-03-23T04:25:03.070Z,5.93
2019-03-23T04:26:03.133Z,6.01
2019-03-23T04:27:03.024Z,5.99
2019-03-23T04:28:03.118Z,5.99
2019-03-23T04:29:03.008Z,6.01
2019-03-23T04:30:03.128Z,6.04
2019-03-23T04:31:03.013Z,6.07
2019-03-23T04:32:02.957Z,6.01
2019-03-23T04:33:02.956Z,6.04
2019-03-23T04:34:04.079Z,5.97
2019-03-23T04:35:02.938Z,5.99
2019-03-23T04:36:03.134Z,6.08
2019-03-23T04:37:02.917Z,6.05
2019-03-23T04:38:02.912Z,5.99
2019-03-23T04:39:02.899Z,5.94
2019-03-23T04:40:02.998Z,5.94
2019-03-23T04:41:02.908Z,5.99
2019-03-23T04:42:03.008Z,6.02
2019-03-23T04:43:02.857Z,5.98
2019-03-23T04:44:03.011Z,5.98
2019-03-23T04:45:02.837Z,5.91
2019-03-23T04:46:04.024Z,5.94
2019-03-23T04:47:02.827Z,5.99
2019-03-23T04:48:02.952Z,5.94
2019-03-23T04:49:02.792Z,5.89
2019-03-23T04:50:02.966Z,5.94
2019-03-23T04:51:02.834Z,5.93
2019-03-23T04:52:02.885Z,5.82
2019-03-23T04:53:02.747Z,5.84
2019-03-23T04:54:02.898Z,5.84
2019-03-23T04:55:02.723Z,5.80
2019-03-23T04:56:02.867Z,5.82
2019-03-23T04:57:02.711Z,5.80
2019-03-23T04:58:02.817Z,5.79
2019-03-23T04:59:02.689Z,5.76
2019-03-23T05:00:02.844Z,5.76
2019-03-23T05:01:04.406Z,5.80
2019-03-23T05:02:02.856Z,5.80
2019-03-23T05:03:02.640Z,5.82
2019-03-23T05:04:02.777Z,5.68
2019-03-23T05:05:02.624Z,5.64
2019-03-23T05:06:02.839Z,5.68
2019-03-23T05:07:02.594Z,5.71
2019-03-23T05:08:02.797Z,5.71
2019-03-23T05:09:02.709Z,5.71
2019-03-23T05:10:02.568Z,5.68
2019-03-23T05:11:02.784Z,5.59
2019-03-23T05:12:02.559Z,5.62
2019-03-23T05:13:02.744Z,5.61
2019-03-23T05:14:02.525Z,5.54
2019-03-23T05:15:02.509Z,5.54
2019-03-23T05:16:02.631Z,5.57
2019-03-23T05:17:02.501Z,5.57
2019-03-23T05:18:02.581Z,5.57
2019-03-23T05:19:02.478Z,5.61
2019-03-23T05:20:02.593Z,5.56
2019-03-23T05:21:02.659Z,5.54
2019-03-23T05:22:02.448Z,5.41
2019-03-23T05:23:02.511Z,5.51
2019-03-23T05:24:02.420Z,5.44
2019-03-23T05:25:02.521Z,5.36
2019-03-23T05:26:02.440Z,5.41
2019-03-23T05:27:02.388Z,5.41
2019-03-23T05:28:02.376Z,5.36
2019-03-23T05:29:03.469Z,5.38
2019-03-23T05:30:02.357Z,5.30
2019-03-23T05:31:02.421Z,5.35
2019-03-23T05:32:02.343Z,5.33
2019-03-23T05:33:02.327Z,5.30
2019-03-23T05:34:02.312Z,5.26
2019-03-23T05:35:02.394Z,5.35
2019-03-23T05:36:02.364Z,5.36
2019-03-23T05:37:02.415Z,5.36
2019-03-23T05:38:02.280Z,5.32
2019-03-23T05:39:02.258Z,5.43
2019-03-23T05:40:02.249Z,5.41
2019-03-23T05:41:02.400Z,5.38
2019-03-23T05:42:02.231Z,5.35
2019-03-23T05:43:02.349Z,5.48
2019-03-23T05:44:02.196Z,5.39
2019-03-23T05:45:02.196Z,5.43
2019-03-23T05:46:02.217Z,5.46
2019-03-23T05:47:03.306Z,5.44
2019-03-23T05:48:02.164Z,5.41
2019-03-23T05:49:02.289Z,5.48
2019-03-23T05:50:02.158Z,5.46
2019-03-23T05:51:02.274Z,5.38
2019-03-23T05:52:02.120Z,5.54
2019-03-23T05:53:02.226Z,5.41
2019-03-23T05:54:02.103Z,5.56
2019-03-23T05:55:02.241Z,5.47
2019-03-23T05:56:02.109Z,5.59
2019-03-23T05:57:02.157Z,5.57
2019-03-23T05:58:02.063Z,5.56
2019-03-23T05:59:02.177Z,5.53
2019-03-23T06:00:02.043Z,5.57
2019-03-23T06:01:02.133Z,5.54
2019-03-23T06:02:02.021Z,5.54
2019-03-23T06:03:02.105Z,5.54
2019-03-23T06:04:02.001Z,5.53
2019-03-23T06:05:02.115Z,5.57
2019-03-23T06:06:02.018Z,5.53
2019-03-23T06:07:02.136Z,5.59
2019-03-23T06:08:01.956Z,5.47
2019-03-23T06:09:02.047Z,5.53
2019-03-23T06:10:01.941Z,5.62
2019-03-23T06:11:02.117Z,5.62
2019-03-23T06:12:01.915Z,5.51
2019-03-23T06:13:01.978Z,5.65
2019-03-23T06:14:01.892Z,5.61
2019-03-23T06:15:01.984Z,5.59
2019-03-23T06:16:02.065Z,5.56
2019-03-23T06:17:01.867Z,5.71
2019-03-23T06:18:02.001Z,5.59
2019-03-23T06:19:01.843Z,5.65
2019-03-23T06:20:01.935Z,5.65
2019-03-23T06:21:01.854Z,5.66
2019-03-23T06:22:01.806Z,5.64
2019-03-23T06:23:01.946Z,5.79
2019-03-23T06:24:01.795Z,5.71
2019-03-23T06:25:01.892Z,5.68
2019-03-23T06:26:01.801Z,5.79
2019-03-23T06:27:02.920Z,5.66
2019-03-23T06:28:01.743Z,5.73
2019-03-23T06:29:01.909Z,5.73
2019-03-23T06:30:01.726Z,5.86
2019-03-23T06:31:02.909Z,5.82
2019-03-23T06:32:01.724Z,5.86
2019-03-23T06:33:02.863Z,5.93
2019-03-23T06:34:01.847Z,5.91
2019-03-23T06:35:01.673Z,5.93
2019-03-23T06:36:01.813Z,5.98
2019-03-23T06:37:01.652Z,5.84
2019-03-23T06:38:01.774Z,5.89
2019-03-23T06:39:05.654Z,5.93
2019-03-23T06:40:01.624Z,6.01
2019-03-23T06:41:01.689Z,5.89
2019-03-23T06:42:02.040Z,5.93
2019-03-23T06:43:01.574Z,5.98
2019-03-23T06:44:01.731Z,5.97
2019-03-23T06:45:01.574Z,6.08
2019-03-23T06:46:01.986Z,6.12
2019-03-23T06:47:01.548Z,6.07
2019-03-23T06:48:02.595Z,6.09
2019-03-23T06:49:01.526Z,6.09
2019-03-23T06:50:01.577Z,6.16
2019-03-23T06:51:03.303Z,6.17
2019-03-23T06:52:01.593Z,6.16
2019-03-23T06:53:01.542Z,6.19
2019-03-23T06:54:01.506Z,6.26
2019-03-23T06:55:01.463Z,6.28
2019-03-23T06:56:01.575Z,6.31
2019-03-23T06:57:01.439Z,6.27
2019-03-23T06:58:01.546Z,6.38
2019-03-23T06:59:01.429Z,6.35
2019-03-23T07:00:02.475Z,6.44
2019-03-23T07:01:01.437Z,6.48
2019-03-23T07:02:02.498Z,6.46
2019-03-23T07:03:01.379Z,6.49
2019-03-23T07:04:01.496Z,6.54
2019-03-23T07:05:01.501Z,6.57
2019-03-23T07:06:01.374Z,6.64
2019-03-23T07:07:02.424Z,6.63
2019-03-23T07:08:01.321Z,6.63
2019-03-23T07:09:01.427Z,6.67
2019-03-23T07:10:01.305Z,6.72
2019-03-23T07:11:01.317Z,6.82
2019-03-23T07:12:01.280Z,6.89
2019-03-23T07:13:01.360Z,6.81
2019-03-23T07:14:01.246Z,6.87
2019-03-23T07:15:01.369Z,6.89
2019-03-23T07:16:01.262Z,7.00
2019-03-23T07:17:01.383Z,7.05
2019-03-23T07:18:01.223Z,7.11
2019-03-23T07:19:02.323Z,7.13
2019-03-23T07:20:01.199Z,7.20
2019-03-23T07:21:01.374Z,7.18
2019-03-23T07:22:01.179Z,7.28
2019-03-23T07:23:01.329Z,7.25
2019-03-23T07:24:01.156Z,7.31
2019-03-23T07:25:01.253Z,7.28
2019-03-23T07:26:01.162Z,7.31
2019-03-23T07:27:01.262Z,7.39
2019-03-23T07:28:01.112Z,7.42
2019-03-23T07:29:01.283Z,7.50
2019-03-23T07:30:01.095Z,7.51
2019-03-23T07:31:01.253Z,7.53
2019-03-23T07:32:05.620Z,7.42
2019-03-23T07:33:02.226Z,7.45
2019-03-23T07:34:01.045Z,7.57
2019-03-23T07:35:01.118Z,7.54
2019-03-23T07:36:01.057Z,7.57
2019-03-23T07:37:01.139Z,7.60
2019-03-23T07:38:01.002Z,7.61
2019-03-23T07:39:02.112Z,7.66
2019-03-23T07:40:00.988Z,7.66
2019-03-23T07:41:01.120Z,7.75
2019-03-23T07:42:00.990Z,7.82
2019-03-23T07:43:01.074Z,7.87
2019-03-23T07:44:00.940Z,7.83
2019-03-23T07:45:01.093Z,7.70
2019-03-23T07:46:00.917Z,7.75
2019-03-23T07:47:01.059Z,7.75
2019-03-23T07:48:00.896Z,7.80
2019-03-23T07:49:01.003Z,7.69
2019-03-23T07:50:00.878Z,7.67
2019-03-23T07:51:01.038Z,7.66
2019-03-23T07:52:00.895Z,7.66
2019-03-23T07:53:00.948Z,7.61
2019-03-23T07:54:02.658Z,7.63
2019-03-23T07:55:00.967Z,7.58
2019-03-23T07:56:00.847Z,7.61
2019-03-23T07:57:01.898Z,7.72
2019-03-23T07:58:00.792Z,7.70
2019-03-23T07:59:00.893Z,7.76
2019-03-23T08:00:00.768Z,7.82
2019-03-23T08:01:00.954Z,7.79
2019-03-23T08:02:00.750Z,7.87
2019-03-23T08:03:00.949Z,7.80
2019-03-23T08:04:00.724Z,7.93
2019-03-23T08:05:00.823Z,8.03
2019-03-23T08:06:00.727Z,7.95
2019-03-23T08:07:00.836Z,8.03
2019-03-23T08:08:00.707Z,8.01
2019-03-23T08:09:00.849Z,8.13
2019-03-23T08:10:00.657Z,8.18
2019-03-23T08:11:00.813Z,8.19
2019-03-23T08:12:00.871Z,8.30
2019-03-23T08:13:00.636Z,8.24
2019-03-23T08:14:00.780Z,8.31
2019-03-23T08:15:00.613Z,8.33
2019-03-23T08:16:00.697Z,8.31
2019-03-23T08:17:00.626Z,8.34
2019-03-23T08:18:00.621Z,8.27
2019-03-23T08:19:00.717Z,8.37
2019-03-23T08:20:00.557Z,8.46
2019-03-23T08:21:00.734Z,8.55
2019-03-23T08:22:00.560Z,8.63
2019-03-23T08:23:00.646Z,8.63
2019-03-23T08:24:00.651Z,8.63
2019-03-23T08:25:00.503Z,8.76
2019-03-23T08:26:00.657Z,8.71
2019-03-23T08:27:00.505Z,8.74
2019-03-23T08:28:00.572Z,8.71
2019-03-23T08:29:00.468Z,8.78
2019-03-23T08:30:00.456Z,8.76
2019-03-23T08:31:00.436Z,8.63
2019-03-23T08:32:00.556Z,8.70
2019-03-23T08:33:00.421Z,8.73
2019-03-23T08:34:00.514Z,8.70
2019-03-23T08:35:00.420Z,8.63
2019-03-23T08:36:00.523Z,8.56
2019-03-23T08:37:02.134Z,8.46
2019-03-23T08:38:00.543Z,8.53
2019-03-23T08:39:00.356Z,8.52
2019-03-23T08:40:00.450Z,8.55
2019-03-23T08:41:00.340Z,8.63
2019-03-23T08:42:00.525Z,8.67
2019-03-23T08:43:00.475Z,8.70
2019-03-23T08:44:00.301Z,8.74
2019-03-23T08:45:00.388Z,8.66
2019-03-23T08:46:00.270Z,8.67
2019-03-23T08:47:00.462Z,8.81
2019-03-23T08:48:00.256Z,8.82
2019-03-23T08:49:00.254Z,8.94
2019-03-23T08:50:00.342Z,8.99
2019-03-23T08:51:00.339Z,9.22
2019-03-23T08:52:00.239Z,9.26
2019-03-23T08:53:00.354Z,9.34
2019-03-23T08:54:00.195Z,9.40
2019-03-23T08:55:00.382Z,9.41
2019-03-23T08:56:00.173Z,9.56
2019-03-23T08:57:00.346Z,9.51
2019-03-23T08:58:00.149Z,9.44
2019-03-23T08:59:00.304Z,9.46
2019-03-23T09:00:00.169Z,9.39
2019-03-23T09:01:00.313Z,9.55
2019-03-23T09:02:00.138Z,9.59
2019-03-23T09:03:00.126Z,9.59
2019-03-23T09:04:00.085Z,9.66
2019-03-23T09:05:00.147Z,9.77
2019-03-23T09:06:00.064Z,9.82
2019-03-23T09:07:00.119Z,9.92
2019-03-23T09:08:00.033Z,9.92
2019-03-23T09:09:00.068Z,9.91
2019-03-23T09:10:00.025Z,9.79
2019-03-23T09:11:00.089Z,9.79
2019-03-23T09:12:00.032Z,9.83
2019-03-23T09:13:00.103Z,9.87
2019-03-23T09:14:00.117Z,9.87
2019-03-23T09:14:59.967Z,9.92
2019-03-23T09:16:00.017Z,9.95
2019-03-23T09:16:59.988Z,9.92
2019-03-23T09:18:00.020Z,9.99
2019-03-23T09:18:59.928Z,10.01
2019-03-23T09:19:59.952Z,10.17
2019-03-23T09:20:59.906Z,10.23
2019-03-23T09:22:00.015Z,10.12
2019-03-23T09:22:59.888Z,10.25
2019-03-23T09:23:59.971Z,10.19
2019-03-23T09:24:59.867Z,10.26
2019-03-23T09:25:59.852Z,10.10
2019-03-23T09:26:59.873Z,10.13
2019-03-23T09:27:59.898Z,10.09
2019-03-23T09:28:59.824Z,10.13
2019-03-23T09:29:59.905Z,10.16
2019-03-23T09:30:59.794Z,10.07
2019-03-23T09:31:59.863Z,9.91
2019-03-23T09:32:59.783Z,9.82
2019-03-23T09:33:59.892Z,9.87
2019-03-23T09:34:59.749Z,9.79
2019-03-23T09:35:59.859Z,9.64
2019-03-23T09:36:59.800Z,9.66
2019-03-23T09:37:59.761Z,9.74
2019-03-23T09:38:59.749Z,9.86
2019-03-23T09:40:10.076Z,9.92
2019-03-23T09:41:00.694Z,10.04
2019-03-23T09:41:59.790Z,9.95
2019-03-23T09:42:59.669Z,9.95
2019-03-23T09:44:00.844Z,9.98
2019-03-23T09:44:59.657Z,10.01
2019-03-23T09:45:59.727Z,10.22
2019-03-23T09:46:59.630Z,10.22
2019-03-23T09:47:59.740Z,10.30
2019-03-23T09:48:59.652Z,10.44
2019-03-23T09:49:59.651Z,10.44
2019-03-23T09:50:59.578Z,10.44
2019-03-23T09:51:59.663Z,10.61
2019-03-23T09:52:59.579Z,10.69
2019-03-23T09:53:59.683Z,10.75
2019-03-23T09:54:59.579Z,10.78
2019-03-23T09:55:59.582Z,10.81
2019-03-23T09:56:59.735Z,10.92
2019-03-23T09:57:59.512Z,10.82
2019-03-23T09:58:59.603Z,10.78
2019-03-23T09:59:59.525Z,10.92
2019-03-23T10:00:59.522Z,10.97
2019-03-23T10:01:59.462Z,11.10
2019-03-23T10:02:59.490Z,11.25
2019-03-23T10:03:59.546Z,11.44
2019-03-23T10:04:59.424Z,11.55
2019-03-23T10:05:59.573Z,11.47
2019-03-23T10:06:59.406Z,11.40
2019-03-23T10:07:59.527Z,11.29
2019-03-23T10:08:59.433Z,11.14
2019-03-23T10:09:59.376Z,11.04
2019-03-23T10:11:00.374Z,10.94
2019-03-23T10:11:59.397Z,10.92
2019-03-23T10:12:59.456Z,10.79
2019-03-23T10:13:59.332Z,10.64
2019-03-23T10:14:59.325Z,10.74
2019-03-23T10:15:59.319Z,10.78
2019-03-23T10:16:59.438Z,10.99
2019-03-23T10:18:01.552Z,10.96
2019-03-23T10:18:59.345Z,11.15
2019-03-23T10:19:59.304Z,11.12
2019-03-23T10:21:00.404Z,11.11
2019-03-23T10:21:59.254Z,11.12
2019-03-23T10:22:59.385Z,11.18
2019-03-23T10:23:59.231Z,11.18
2019-03-23T10:24:59.338Z,11.17
2019-03-23T10:25:59.207Z,11.08
2019-03-23T10:26:59.355Z,11.08
2019-03-23T10:27:59.222Z,11.14
2019-03-23T10:28:59.360Z,11.05
2019-03-23T10:29:59.171Z,11.15
2019-03-23T10:30:59.275Z,11.15
2019-03-23T10:31:59.133Z,11.25
2019-03-23T10:32:59.341Z,11.36
2019-03-23T10:33:59.131Z,11.48
2019-03-23T10:34:59.299Z,11.60
2019-03-23T10:35:59.100Z,11.69
2019-03-23T10:36:59.214Z,11.77
2019-03-23T10:37:59.102Z,11.83
2019-03-23T10:38:59.227Z,12.00
2019-03-23T10:39:59.059Z,11.91
2019-03-23T10:40:59.244Z,11.95
2019-03-23T10:41:59.046Z,11.86
2019-03-23T10:42:59.213Z,11.95
2019-03-23T10:43:59.017Z,12.07
2019-03-23T10:44:59.157Z,11.90
2019-03-23T10:45:58.993Z,12.02
2019-03-23T10:46:59.185Z,11.97
2019-03-23T10:47:59.014Z,12.00
2019-03-23T10:48:59.107Z,11.97
2019-03-23T10:49:58.961Z,12.00
2019-03-23T10:50:59.122Z,12.09
2019-03-23T10:51:59.126Z,12.37
2019-03-23T10:52:58.957Z,12.20
2019-03-23T10:53:59.041Z,12.15
2019-03-23T10:54:58.940Z,12.27
2019-03-23T10:55:59.041Z,12.25
2019-03-23T10:56:58.885Z,12.32
2019-03-23T10:57:58.906Z,12.46
2019-03-23T10:58:58.866Z,12.49
2019-03-23T10:59:58.980Z,12.36
2019-03-23T11:00:58.836Z,12.32
2019-03-23T11:01:58.999Z,12.32
2019-03-23T11:02:58.852Z,12.36
2019-03-23T11:03:58.813Z,12.39
2019-03-23T11:04:58.797Z,12.46
2019-03-23T11:05:58.936Z,12.49
2019-03-23T11:06:58.773Z,12.43
2019-03-23T11:07:59.000Z,12.50
2019-03-23T11:08:58.757Z,12.47
2019-03-23T11:09:58.739Z,12.58
2019-03-23T11:10:58.749Z,12.58
2019-03-23T11:11:58.863Z,12.68
2019-03-23T11:12:58.742Z,12.79
2019-03-23T11:13:58.879Z,12.91
2019-03-23T11:14:58.684Z,12.94
2019-03-23T11:15:58.794Z,13.09
2019-03-23T11:16:58.671Z,13.20
2019-03-23T11:17:58.761Z,13.37
2019-03-23T11:18:58.644Z,13.39
2019-03-23T11:19:58.715Z,13.28
2019-03-23T11:21:00.157Z,13.38
2019-03-23T11:21:58.726Z,13.19
2019-03-23T11:22:58.632Z,13.18
2019-03-23T11:23:58.634Z,13.05
2019-03-23T11:24:58.584Z,13.11
2019-03-23T11:25:58.652Z,13.19
2019-03-23T11:26:58.559Z,13.11
2019-03-23T11:27:58.723Z,13.09
2019-03-23T11:28:58.546Z,13.19
2019-03-23T11:29:58.682Z,13.31
2019-03-23T11:30:58.522Z,13.57
2019-03-23T11:31:58.593Z,13.67
2019-03-23T11:32:58.502Z,13.68
2019-03-23T11:33:59.581Z,13.86
2019-03-23T11:34:58.562Z,14.00
2019-03-23T11:35:58.530Z,14.05
2019-03-23T11:36:58.461Z,13.97
2019-03-23T11:37:58.733Z,14.05
2019-03-23T11:38:58.468Z,13.83
2019-03-23T11:39:58.569Z,13.78
2019-03-23T11:40:58.471Z,13.54
2019-03-23T11:41:58.398Z,13.42
2019-03-23T11:42:58.488Z,13.19
2019-03-23T11:43:58.429Z,13.28
2019-03-23T11:44:59.458Z,13.20
2019-03-23T11:45:58.361Z,13.22
2019-03-23T11:46:58.344Z,13.05
2019-03-23T11:47:58.416Z,12.97
2019-03-23T11:48:58.333Z,12.82
2019-03-23T11:49:59.536Z,12.68
2019-03-23T11:50:58.309Z,12.85
2019-03-23T11:51:58.471Z,12.85
2019-03-23T11:52:58.539Z,12.68
2019-03-23T11:53:58.273Z,12.45
2019-03-23T11:54:59.938Z,12.42
2019-03-23T11:55:59.526Z,12.39
2019-03-23T11:56:59.424Z,12.45
2019-03-23T11:57:58.231Z,12.58
2019-03-23T11:58:58.233Z,12.83
2019-03-23T11:59:58.506Z,13.00
2019-03-23T12:00:58.324Z,13.12
2019-03-23T12:01:58.190Z,13.28
2019-03-23T12:02:58.336Z,13.38
2019-03-23T12:03:58.179Z,13.37
2019-03-23T12:04:58.195Z,13.30
2019-03-23T12:05:58.151Z,13.13
2019-03-23T12:06:59.288Z,12.98
2019-03-23T12:07:58.135Z,12.78
2019-03-23T12:08:58.278Z,12.79
2019-03-23T12:09:58.139Z,12.78
2019-03-23T12:11:02.737Z,12.85
2019-03-23T12:11:59.086Z,12.93
2019-03-23T12:12:58.199Z,12.93
2019-03-23T12:13:58.064Z,12.85
2019-03-23T12:14:58.179Z,12.86
2019-03-23T12:15:58.040Z,12.82
2019-03-23T12:16:58.032Z,12.86
2019-03-23T12:17:58.024Z,13.00
2019-03-23T12:18:58.136Z,13.13
2019-03-23T12:19:58.032Z,13.15
2019-03-23T12:20:58.150Z,13.27
2019-03-23T12:21:57.988Z,13.13
2019-03-23T12:22:57.970Z,13.20
2019-03-23T12:23:57.959Z,13.30
2019-03-23T12:24:59.060Z,13.54
2019-03-23T12:25:57.938Z,13.52
2019-03-23T12:26:58.096Z,13.38
2019-03-23T12:27:57.918Z,13.28
2019-03-23T12:28:58.003Z,13.25
2019-03-23T12:30:06.787Z,13.16
2019-03-23T12:30:58.879Z,13.25
2019-03-23T12:31:58.020Z,13.20
2019-03-23T12:32:57.866Z,13.13
2019-03-23T12:33:57.939Z,13.03
2019-03-23T12:34:57.872Z,13.05
2019-03-23T12:35:59.892Z,12.90
2019-03-23T12:36:57.830Z,12.91
2019-03-23T12:37:57.962Z,12.85
2019-03-23T12:38:57.811Z,12.85
2019-03-23T12:39:57.933Z,12.86
2019-03-23T12:40:57.780Z,12.86
2019-03-23T12:41:57.892Z,12.83
2019-03-23T12:42:57.765Z,12.87
2019-03-23T12:43:57.899Z,13.03
2019-03-23T12:44:57.803Z,13.16
2019-03-23T12:45:57.813Z,13.25
2019-03-23T12:46:57.717Z,13.25
2019-03-23T12:47:57.826Z,13.22
2019-03-23T12:48:57.698Z,13.19
2019-03-23T12:49:57.796Z,13.23
2019-03-23T12:50:57.676Z,13.19
2019-03-23T12:51:57.749Z,13.13
2019-03-23T12:52:57.651Z,13.11
2019-03-23T12:53:57.766Z,12.98
2019-03-23T12:54:57.656Z,12.98
2019-03-23T12:55:57.786Z,12.90
2019-03-23T12:56:57.616Z,12.87
2019-03-23T12:57:57.636Z,13.05
2019-03-23T12:58:57.588Z,12.82
2019-03-23T12:59:57.762Z,12.85
2019-03-23T13:00:57.585Z,12.83
2019-03-23T13:01:57.718Z,12.80
2019-03-23T13:02:57.539Z,12.83
2019-03-23T13:03:58.648Z,12.79
2019-03-23T13:04:57.552Z,12.82
2019-03-23T13:05:57.642Z,12.72
2019-03-23T13:06:57.507Z,12.61
2019-03-23T13:07:57.651Z,12.46
2019-03-23T13:08:57.484Z,12.45
2019-03-23T13:09:58.641Z,12.50
2019-03-23T13:10:57.458Z,12.53